createdAt,value
2022-12-09T00:02:20.160Z,15.07
2022-12-09T00:04:49.068Z,17.60
2022-12-09T00:07:19.007Z,17.73
2022-12-09T00:09:47.288Z,14.20
2022-12-09T00:12:15.582Z,15.40
2022-12-09T00:14:43.931Z,16.43
2022-12-09T00:17:12.230Z,15.53
2022-12-09T00:19:40.581Z,14.50
2022-12-09T00:22:08.784Z,16.00
2022-12-09T00:24:38.341Z,17.13
2022-12-09T00:27:06.571Z,18.60
2022-12-09T00:29:34.996Z,14.10
2022-12-09T00:32:03.339Z,20.17
2022-12-09T00:34:31.576Z,16.67
2022-12-09T00:36:59.728Z,18.07
2022-12-09T00:39:28.392Z,16.03
2022-12-09T00:41:57.961Z,15.47
2022-12-09T00:44:27.140Z,15.30
2022-12-09T00:46:55.471Z,14.40
2022-12-09T00:49:24.375Z,16.20
2022-12-09T00:51:54.087Z,14.30
2022-12-09T00:54:23.505Z,12.57
2022-12-09T00:56:52.059Z,14.17
2022-12-09T00:59:22.195Z,15.50
2022-12-09T01:01:50.630Z,14.80
2022-12-09T01:04:21.322Z,14.43
2022-12-09T01:06:49.612Z,15.67
2022-12-09T01:09:17.989Z,13.40
2022-12-09T01:11:46.476Z,16.40
2022-12-09T01:14:14.817Z,16.50
2022-12-09T01:16:44.470Z,13.97
2022-12-09T01:19:15.333Z,13.93
2022-12-09T01:21:43.743Z,15.73
2022-12-09T01:24:12.720Z,15.17
2022-12-09T01:26:41.216Z,18.93
2022-12-09T01:29:09.791Z,15.00
2022-12-09T01:31:38.255Z,18.07
2022-12-09T01:34:08.160Z,14.63
2022-12-09T01:36:36.400Z,13.60
2022-12-09T01:39:05.745Z,15.13
2022-12-09T01:41:35.145Z,14.83
2022-12-09T01:44:16.260Z,14.40
2022-12-09T01:46:45.439Z,16.20
2022-12-09T01:49:19.580Z,14.03
2022-12-09T01:51:55.218Z,13.80
2022-12-09T01:54:23.625Z,14.27
2022-12-09T01:56:53.019Z,15.77
2022-12-09T01:59:22.915Z,14.90
2022-12-09T02:01:55.581Z,17.43
2022-12-09T02:04:25.532Z,14.77
2022-12-09T02:06:54.403Z,15.17
2022-12-09T02:09:23.269Z,15.43
2022-12-09T02:12:09.480Z,17.43
2022-12-09T02:14:42.643Z,14.70
2022-12-09T02:17:31.358Z,16.57
2022-12-09T02:20:11.703Z,13.87
2022-12-09T02:22:44.014Z,15.17
2022-12-09T02:25:24.391Z,14.60
2022-12-09T02:28:09.636Z,13.60
2022-12-09T02:30:42.135Z,12.50
2022-12-09T02:33:25.640Z,15.83
2022-12-09T02:35:59.150Z,15.27
2022-12-09T02:38:32.623Z,13.30
2022-12-09T02:41:06.997Z,16.07
2022-12-09T02:43:49.378Z,13.77
2022-12-09T02:46:22.909Z,14.50
2022-12-09T02:48:55.860Z,15.50
2022-12-09T02:51:28.015Z,13.60
2022-12-09T02:54:03.409Z,13.27
2022-12-09T02:56:35.925Z,13.17
2022-12-09T02:59:05.254Z,13.20
2022-12-09T03:01:39.370Z,13.67
2022-12-09T03:04:10.721Z,14.47
2022-12-09T03:06:48.369Z,14.67
2022-12-09T03:09:21.605Z,17.03
2022-12-09T03:11:52.078Z,15.87
2022-12-09T03:14:27.243Z,16.67
2022-12-09T03:17:02.021Z,16.43
2022-12-09T03:19:35.034Z,14.13
2022-12-09T03:22:09.943Z,15.50
2022-12-09T03:24:42.210Z,15.07
2022-12-09T03:27:14.386Z,14.60
2022-12-09T03:29:49.290Z,12.40
2022-12-09T03:32:20.985Z,14.63
2022-12-09T03:34:52.197Z,19.70
2022-12-09T03:37:23.212Z,13.53
2022-12-09T03:39:53.068Z,18.07
2022-12-09T03:42:25.677Z,13.67
2022-12-09T03:44:57.374Z,13.97
2022-12-09T03:47:25.900Z,16.17
2022-12-09T03:49:54.775Z,13.80
2022-12-09T03:52:30.688Z,13.20
2022-12-09T03:55:02.377Z,15.30
2022-12-09T03:57:30.907Z,13.07
2022-12-09T04:00:01.725Z,17.87
2022-12-09T04:02:30.543Z,16.17
2022-12-09T04:04:59.344Z,16.50
2022-12-09T04:07:29.036Z,17.27
2022-12-09T04:09:57.760Z,16.23
2022-12-09T04:12:25.986Z,15.33
2022-12-09T04:14:54.415Z,15.40
2022-12-09T04:17:22.734Z,16.27
2022-12-09T04:19:51.776Z,16.10
2022-12-09T04:22:20.790Z,15.80
2022-12-09T04:24:50.455Z,14.80
2022-12-09T04:27:19.020Z,18.23
2022-12-09T04:29:47.205Z,20.33
2022-12-09T04:32:15.656Z,14.10
2022-12-09T04:34:44.172Z,17.00
2022-12-09T04:37:13.048Z,17.47
2022-12-09T04:39:41.933Z,14.50
2022-12-09T04:42:11.735Z,15.07
2022-12-09T04:44:40.165Z,13.07
2022-12-09T04:47:08.780Z,15.90
2022-12-09T04:49:37.543Z,13.27
2022-12-09T04:52:06.273Z,18.80
2022-12-09T04:54:34.663Z,14.00
2022-12-09T04:57:03.136Z,13.83
2022-12-09T04:59:33.659Z,35.07
2022-12-09T05:02:02.319Z,21.90
2022-12-09T05:04:31.198Z,17.70
2022-12-09T05:06:59.639Z,17.60
2022-12-09T05:09:28.072Z,15.07
2022-12-09T05:11:58.735Z,14.73
2022-12-09T05:14:27.506Z,14.10
2022-12-09T05:16:57.511Z,15.03
2022-12-09T05:19:25.996Z,19.00
2022-12-09T05:21:54.709Z,14.50
2022-12-09T05:24:23.054Z,12.97
2022-12-09T05:26:51.917Z,14.67
2022-12-09T05:29:23.083Z,12.63
2022-12-09T05:31:52.570Z,14.33
2022-12-09T05:34:22.692Z,13.23
2022-12-09T05:36:52.015Z,14.87
2022-12-09T05:39:20.980Z,14.50
2022-12-09T05:41:49.599Z,14.47
2022-12-09T05:44:18.282Z,16.07
2022-12-09T05:46:46.968Z,14.37
2022-12-09T05:49:15.521Z,19.20
2022-12-09T05:51:45.503Z,17.10
2022-12-09T05:54:13.828Z,14.10
2022-12-09T05:56:47.847Z,15.23
2022-12-09T05:59:16.959Z,17.83
2022-12-09T06:01:45.735Z,16.10
2022-12-09T06:04:14.644Z,16.20
2022-12-09T06:06:43.360Z,15.40
2022-12-09T06:09:13.486Z,14.67
2022-12-09T06:11:42.393Z,15.00
2022-12-09T06:14:12.219Z,14.90
2022-12-09T06:16:40.704Z,17.20
2022-12-09T06:19:12.236Z,14.97
2022-12-09T06:21:41.079Z,13.90
2022-12-09T06:24:10.545Z,17.90
2022-12-09T06:26:40.637Z,14.10
2022-12-09T06:29:09.284Z,17.13
2022-12-09T06:31:37.998Z,15.73
2022-12-09T06:34:06.827Z,18.00
2022-12-09T06:36:35.142Z,19.03
2022-12-09T06:39:09.901Z,17.23
2022-12-09T06:41:41.395Z,18.03
2022-12-09T06:44:11.721Z,14.57
2022-12-09T06:46:40.686Z,13.97
2022-12-09T06:49:10.305Z,15.20
2022-12-09T06:51:38.765Z,18.43
2022-12-09T06:54:10.296Z,13.17
2022-12-09T06:56:40.512Z,16.90
2022-12-09T06:59:10.767Z,13.97
2022-12-09T07:01:39.775Z,13.40
2022-12-09T07:04:08.702Z,15.10
2022-12-09T07:06:39.554Z,18.30
2022-12-09T07:09:10.580Z,14.30
2022-12-09T07:11:42.349Z,12.43
2022-12-09T07:14:11.593Z,14.60
2022-12-09T07:16:40.159Z,12.60
2022-12-09T07:19:09.563Z,12.07
2022-12-09T07:21:38.353Z,11.33
2022-12-09T07:24:07.678Z,13.30
2022-12-09T07:26:36.474Z,10.93
2022-12-09T07:29:07.405Z,12.53
2022-12-09T07:31:36.573Z,11.70
2022-12-09T07:34:06.637Z,12.70
2022-12-09T07:36:36.697Z,12.67
2022-12-09T07:39:09.089Z,11.30
2022-12-09T07:41:37.556Z,12.30
2022-12-09T07:44:07.461Z,12.90
2022-12-09T07:46:35.910Z,17.57
2022-12-09T07:49:06.348Z,11.40
2022-12-09T07:51:36.309Z,15.13
2022-12-09T07:54:05.486Z,13.37
2022-12-09T07:56:34.339Z,13.83
2022-12-09T07:59:02.902Z,18.13
2022-12-09T08:01:33.056Z,15.30
2022-12-09T08:04:02.601Z,18.73
2022-12-09T08:06:32.201Z,15.93
2022-12-09T08:09:02.398Z,12.40
2022-12-09T08:11:33.119Z,12.03
2022-12-09T08:14:08.901Z,17.57
2022-12-09T08:16:41.903Z,14.30
2022-12-09T08:19:12.184Z,9.23
2022-12-09T08:21:41.582Z,12.93
2022-12-09T08:24:13.211Z,10.10
2022-12-09T08:26:42.529Z,10.47
2022-12-09T08:29:13.146Z,12.13
2022-12-09T08:31:45.209Z,9.70
2022-12-09T08:34:14.399Z,11.23
2022-12-09T08:36:43.598Z,10.27
2022-12-09T08:39:13.203Z,10.30
2022-12-09T08:41:41.993Z,8.63
2022-12-09T08:44:12.957Z,13.13
2022-12-09T08:46:45.584Z,12.03
2022-12-09T08:49:18.799Z,10.50
2022-12-09T08:51:48.622Z,9.10
2022-12-09T08:54:17.980Z,9.20
2022-12-09T08:56:47.641Z,10.50
2022-12-09T08:59:16.969Z,9.37
2022-12-09T09:01:47.500Z,9.43
2022-12-09T09:04:18.714Z,10.30
2022-12-09T09:06:50.292Z,10.37
2022-12-09T09:09:20.552Z,10.70
2022-12-09T09:11:49.558Z,9.77
2022-12-09T09:14:18.455Z,10.10
2022-12-09T09:16:48.331Z,10.03
2022-12-09T09:19:18.810Z,8.97
2022-12-09T09:21:47.990Z,11.73
2022-12-09T09:24:19.104Z,10.17
2022-12-09T09:26:49.307Z,8.93
2022-12-09T09:29:19.789Z,8.77
2022-12-09T09:31:54.537Z,10.10
2022-12-09T09:34:24.089Z,7.87
2022-12-09T09:36:52.791Z,10.00
2022-12-09T09:39:22.406Z,7.57
2022-12-09T09:41:54.505Z,11.30
2022-12-09T09:44:28.991Z,9.57
2022-12-09T09:46:59.637Z,7.40
2022-12-09T09:49:35.895Z,5.87
2022-12-09T09:52:08.575Z,8.33
2022-12-09T09:54:37.880Z,7.40
2022-12-09T09:57:14.305Z,8.93
2022-12-09T09:59:57.755Z,6.03
2022-12-09T10:02:42.091Z,8.67
2022-12-09T10:05:21.891Z,6.53
2022-12-09T10:07:53.622Z,7.00
2022-12-09T10:10:38.393Z,5.43
2022-12-09T10:13:22.056Z,6.20
2022-12-09T10:16:02.773Z,5.33
2022-12-09T10:18:40.536Z,5.73
2022-12-09T10:21:17.942Z,5.47
2022-12-09T10:23:47.847Z,9.47
2022-12-09T10:26:21.959Z,10.20
2022-12-09T10:28:56.328Z,7.03
2022-12-09T10:31:26.672Z,8.10
2022-12-09T10:33:56.548Z,8.23
2022-12-09T10:36:30.810Z,7.63
2022-12-09T10:39:03.966Z,6.27
2022-12-09T10:42:00.553Z,7.90
2022-12-09T10:44:29.694Z,7.23
2022-12-09T10:47:01.347Z,6.17
2022-12-09T10:49:32.186Z,8.20
2022-12-09T10:52:00.873Z,11.47
2022-12-09T10:54:36.486Z,9.20
2022-12-09T10:57:08.356Z,7.63
2022-12-09T10:59:37.588Z,6.57
2022-12-09T11:02:21.183Z,7.40
2022-12-09T11:04:51.559Z,13.03
2022-12-09T11:07:23.168Z,7.30
2022-12-09T11:10:04.272Z,4.93
2022-12-09T11:12:40.903Z,5.73
2022-12-09T11:15:30.470Z,6.50
2022-12-09T11:18:03.440Z,8.40
2022-12-09T11:20:34.648Z,4.83
2022-12-09T11:23:06.441Z,5.90
2022-12-09T11:25:36.964Z,21.90
2022-12-09T11:28:25.538Z,18.67
2022-12-09T11:33:52.008Z,7.20
2022-12-09T11:36:26.450Z,8.40
2022-12-09T11:39:16.873Z,6.40
2022-12-09T11:42:10.127Z,6.27
2022-12-09T11:44:49.276Z,5.40
2022-12-09T11:47:23.921Z,5.20
2022-12-09T11:49:55.752Z,4.90
2022-12-09T11:52:28.656Z,5.57
2022-12-09T11:55:14.456Z,6.23
2022-12-09T11:57:48.644Z,6.40
2022-12-09T12:00:23.102Z,10.93
2022-12-09T12:03:00.989Z,5.70
2022-12-09T12:05:34.459Z,6.40
2022-12-09T12:08:14.011Z,6.40
2022-12-09T12:10:45.089Z,7.70
2022-12-09T12:13:23.688Z,5.13
2022-12-09T12:15:59.651Z,6.00
2022-12-09T12:18:33.555Z,5.30
2022-12-09T12:21:22.436Z,60.73
2022-12-09T12:24:37.179Z,34.23
2022-12-09T12:27:18.045Z,17.43
2022-12-09T12:29:54.584Z,13.57
2022-12-09T12:32:34.351Z,9.37
2022-12-09T12:35:22.388Z,7.67
2022-12-09T12:38:02.830Z,7.43
2022-12-09T12:40:44.395Z,9.00
2022-12-09T12:43:46.329Z,9.93
2022-12-09T12:46:28.163Z,14.60
2022-12-09T12:49:12.342Z,11.43
2022-12-09T12:51:52.672Z,6.20
2022-12-09T12:54:34.213Z,10.43
2022-12-09T12:57:12.828Z,5.63
2022-12-09T12:59:50.273Z,7.30
2022-12-09T13:02:30.128Z,9.83
2022-12-09T13:05:03.557Z,20.17
2022-12-09T13:07:37.929Z,21.33
2022-12-09T13:10:16.659Z,13.03
2022-12-09T13:12:57.022Z,8.17
2022-12-09T13:15:32.323Z,7.40
2022-12-09T13:18:07.282Z,5.93
2022-12-09T13:20:44.800Z,11.73
2022-12-09T13:23:23.270Z,4.97
2022-12-09T13:26:02.919Z,4.77
2022-12-09T13:28:44.539Z,5.93
2022-12-09T13:31:13.145Z,4.83
2022-12-09T13:33:50.958Z,5.40
2022-12-09T13:36:23.178Z,6.00
2022-12-09T13:38:51.580Z,5.90
2022-12-09T13:42:03.395Z,5.40
2022-12-09T13:44:36.956Z,6.43
2022-12-09T13:47:16.404Z,9.93
2022-12-09T13:49:55.108Z,4.43
2022-12-09T13:52:43.875Z,4.90
2022-12-09T13:55:30.523Z,7.20
2022-12-09T13:58:13.996Z,5.03
2022-12-09T14:00:45.681Z,7.23
2022-12-09T14:03:28.958Z,9.17
2022-12-09T14:05:59.946Z,6.80
2022-12-09T14:08:33.102Z,6.37
2022-12-09T14:11:39.838Z,7.83
2022-12-09T14:14:39.638Z,6.77
2022-12-09T14:17:21.784Z,7.53
2022-12-09T14:19:54.862Z,7.80
2022-12-09T14:22:35.083Z,10.60
2022-12-09T14:25:36.064Z,12.40
2022-12-09T14:28:47.043Z,8.27
2022-12-09T14:31:59.953Z,8.73
2022-12-09T14:34:41.825Z,9.27
2022-12-09T14:37:30.768Z,13.27
2022-12-09T14:40:06.312Z,8.37
2022-12-09T14:42:44.835Z,10.83
2022-12-09T14:45:21.814Z,11.97
2022-12-09T14:47:50.424Z,9.20
2022-12-09T14:50:22.371Z,14.33
2022-12-09T14:52:52.782Z,7.30
2022-12-09T14:55:23.490Z,9.87
2022-12-09T14:57:53.162Z,8.53
2022-12-09T15:00:31.371Z,9.20
2022-12-09T15:05:58.251Z,67.37
2022-12-09T15:08:31.899Z,42.07
2022-12-09T15:11:01.237Z,23.27
2022-12-09T15:13:29.755Z,14.60
2022-12-09T15:15:58.539Z,13.40
2022-12-09T15:18:27.514Z,11.03
2022-12-09T15:20:58.638Z,11.77
2022-12-09T15:23:32.109Z,11.90
2022-12-09T15:26:02.742Z,8.77
2022-12-09T15:28:32.887Z,12.10
2022-12-09T15:31:03.337Z,9.67
2022-12-09T15:33:39.097Z,10.30
2022-12-09T15:36:11.694Z,11.10
2022-12-09T15:38:43.565Z,9.13
2022-12-09T15:41:29.172Z,8.43
2022-12-09T15:44:02.627Z,10.17
2022-12-09T15:46:33.440Z,13.47
2022-12-09T15:49:03.492Z,11.47
2022-12-09T15:51:34.272Z,8.50
2022-12-09T15:54:05.227Z,9.77
2022-12-09T15:56:39.602Z,10.53
2022-12-09T15:59:13.655Z,11.80
2022-12-09T16:01:49.602Z,10.67
2022-12-09T16:04:20.946Z,13.43
2022-12-09T16:06:51.350Z,10.27
2022-12-09T16:09:21.547Z,12.17
2022-12-09T16:11:54.565Z,14.17
2022-12-09T16:14:24.839Z,19.30
2022-12-09T16:16:56.515Z,19.90
2022-12-09T16:19:26.851Z,21.30
2022-12-09T16:21:59.268Z,14.20
2022-12-09T16:24:50.775Z,14.67
2022-12-09T16:27:20.488Z,15.50
2022-12-09T16:29:51.704Z,32.13
2022-12-09T16:32:28.250Z,28.63
2022-12-09T16:34:58.144Z,17.40
2022-12-09T16:37:37.712Z,13.97
2022-12-09T16:41:01.596Z,11.97
2022-12-09T16:43:30.603Z,14.90
2022-12-09T16:46:01.157Z,12.30
2022-12-09T16:48:30.683Z,14.17
2022-12-09T16:51:05.200Z,12.23
2022-12-09T16:53:38.271Z,10.33
2022-12-09T16:56:07.278Z,14.57
2022-12-09T16:58:36.144Z,11.23
2022-12-09T17:01:05.073Z,14.67
2022-12-09T17:03:37.903Z,14.20
2022-12-09T17:06:06.844Z,13.47
2022-12-09T17:08:37.891Z,10.93
2022-12-09T17:11:06.355Z,10.90
2022-12-09T17:13:35.792Z,11.13
2022-12-09T17:16:05.746Z,12.30
2022-12-09T17:18:34.472Z,12.70
2022-12-09T17:21:04.125Z,11.60
2022-12-09T17:23:39.111Z,11.10
2022-12-09T17:26:11.189Z,9.53
2022-12-09T17:28:40.545Z,13.93
2022-12-09T17:31:10.075Z,14.63
2022-12-09T17:33:38.701Z,11.57
2022-12-09T17:36:08.039Z,11.87
2022-12-09T17:38:36.316Z,12.07
2022-12-09T17:41:05.685Z,12.93
2022-12-09T17:43:35.941Z,11.17
2022-12-09T17:46:05.886Z,11.60
2022-12-09T17:48:35.662Z,11.07
2022-12-09T17:51:07.802Z,10.43
2022-12-09T17:53:37.211Z,14.07
2022-12-09T17:56:09.630Z,16.80
2022-12-09T17:58:39.620Z,12.57
2022-12-09T18:01:14.255Z,13.00
2022-12-09T18:04:00.459Z,12.00
2022-12-09T18:06:34.309Z,12.03
2022-12-09T18:09:03.030Z,17.33
2022-12-09T18:11:31.451Z,15.40
2022-12-09T18:14:01.246Z,12.20
2022-12-09T18:16:30.122Z,13.50
2022-12-09T18:19:04.380Z,14.10
2022-12-09T18:21:33.274Z,14.53
2022-12-09T18:24:01.943Z,13.20
2022-12-09T18:26:34.049Z,23.83
2022-12-09T18:29:06.505Z,28.03
2022-12-09T18:31:35.072Z,26.13
2022-12-09T18:34:03.627Z,23.83
2022-12-09T18:36:32.017Z,22.93
2022-12-09T18:39:00.377Z,17.73
2022-12-09T18:41:30.822Z,14.70
2022-12-09T18:44:01.719Z,20.80
2022-12-09T18:46:33.832Z,13.80
2022-12-09T18:49:05.934Z,19.20
2022-12-09T18:51:34.499Z,16.63
2022-12-09T18:54:03.992Z,24.90
2022-12-09T18:56:33.063Z,46.57
2022-12-09T18:59:09.603Z,41.70
2022-12-09T19:01:41.324Z,29.27
2022-12-09T19:04:13.583Z,23.60
2022-12-09T19:06:43.619Z,27.03
2022-12-09T19:09:13.831Z,22.80
2022-12-09T19:11:43.070Z,18.90
2022-12-09T19:14:11.729Z,25.10
2022-12-09T19:16:41.735Z,17.90
2022-12-09T19:19:11.947Z,19.90
2022-12-09T19:21:40.621Z,17.77
2022-12-09T19:24:13.617Z,21.70
2022-12-09T19:26:42.972Z,19.83
2022-12-09T19:29:12.149Z,15.83
2022-12-09T19:31:44.328Z,18.00
2022-12-09T19:34:15.294Z,16.13
2022-12-09T19:36:49.867Z,16.80
2022-12-09T19:39:19.835Z,16.87
2022-12-09T19:41:48.476Z,17.73
2022-12-09T19:44:37.342Z,14.07
2022-12-09T19:47:08.406Z,21.33
2022-12-09T19:49:37.702Z,19.60
2022-12-09T19:52:06.007Z,22.53
2022-12-09T19:54:34.288Z,23.20
2022-12-09T19:57:02.583Z,18.67
2022-12-09T19:59:30.961Z,20.50
2022-12-09T20:01:59.315Z,19.53
2022-12-09T20:04:49.041Z,16.83
2022-12-09T20:07:18.337Z,16.57
2022-12-09T20:09:46.957Z,16.60
2022-12-09T20:12:15.585Z,17.03
2022-12-09T20:14:44.280Z,22.43
2022-12-09T20:17:12.604Z,18.10
2022-12-09T20:19:42.253Z,20.67
2022-12-09T20:22:10.788Z,24.00
2022-12-09T20:24:39.108Z,20.87
2022-12-09T20:27:07.685Z,20.97
2022-12-09T20:29:38.170Z,20.53
2022-12-09T20:32:07.223Z,21.20
2022-12-09T20:34:36.017Z,20.10
2022-12-09T20:37:05.985Z,23.00
2022-12-09T20:39:34.190Z,21.17
2022-12-09T20:42:02.579Z,22.80
2022-12-09T20:44:32.306Z,24.43
2022-12-09T20:47:00.536Z,23.57
2022-12-09T20:49:29.876Z,23.43
2022-12-09T20:51:58.301Z,26.20
2022-12-09T20:54:27.989Z,23.13
2022-12-09T20:56:56.332Z,23.57
2022-12-09T20:59:25.257Z,25.90
2022-12-09T21:01:55.789Z,24.00
2022-12-09T21:04:24.135Z,21.67
2022-12-09T21:06:52.496Z,22.43
2022-12-09T21:09:22.930Z,22.47
2022-12-09T21:11:52.684Z,20.00
2022-12-09T21:14:21.441Z,21.33
2022-12-09T21:16:51.325Z,20.73
2022-12-09T21:19:24.914Z,19.60
2022-12-09T21:21:54.681Z,19.80
2022-12-09T21:24:24.641Z,21.80
2022-12-09T21:26:56.026Z,22.03
2022-12-09T21:29:31.274Z,17.80
2022-12-09T21:32:01.366Z,17.93
2022-12-09T21:34:29.762Z,16.97
2022-12-09T21:36:58.066Z,17.00
2022-12-09T21:39:27.547Z,16.87
2022-12-09T21:41:57.570Z,16.63
2022-12-09T21:44:27.161Z,16.97
2022-12-09T21:46:55.568Z,17.67
2022-12-09T21:49:23.989Z,16.60
2022-12-09T21:51:52.407Z,18.50
2022-12-09T21:54:20.579Z,19.73
2022-12-09T21:56:48.850Z,17.80
2022-12-09T21:59:18.470Z,20.33
2022-12-09T22:01:46.865Z,24.63
2022-12-09T22:04:17.123Z,23.67
2022-12-09T22:06:48.236Z,23.97
2022-12-09T22:09:17.562Z,23.37
2022-12-09T22:11:45.736Z,21.97
2022-12-09T22:14:13.950Z,22.57
2022-12-09T22:16:45.597Z,26.93
2022-12-09T22:19:19.147Z,23.17
2022-12-09T22:21:47.947Z,25.10
2022-12-09T22:24:16.640Z,24.17
2022-12-09T22:26:45.252Z,22.90
2022-12-09T22:29:15.134Z,23.07
2022-12-09T22:31:45.320Z,26.50
2022-12-09T22:34:15.380Z,24.30
2022-12-09T22:36:44.225Z,27.60
2022-12-09T22:39:14.297Z,26.30
2022-12-09T22:41:43.701Z,21.47
2022-12-09T22:44:13.381Z,21.07
2022-12-09T22:46:42.203Z,20.20
2022-12-09T22:49:14.010Z,23.13
2022-12-09T22:51:42.987Z,19.73
2022-12-09T22:54:11.637Z,21.63
2022-12-09T22:56:42.267Z,20.47
2022-12-09T22:59:10.844Z,20.30
2022-12-09T23:01:39.271Z,19.53
2022-12-09T23:04:08.924Z,18.67
2022-12-09T23:06:40.055Z,18.23
2022-12-09T23:09:11.019Z,19.10
2022-12-09T23:11:39.294Z,19.60
2022-12-09T23:14:07.820Z,19.43
2022-12-09T23:16:36.709Z,18.53
2022-12-09T23:19:05.182Z,19.07
2022-12-09T23:21:35.720Z,19.57
2022-12-09T23:24:07.590Z,18.77
2022-12-09T23:26:39.478Z,21.53
2022-12-09T23:29:12.810Z,17.57
2022-12-09T23:31:41.159Z,19.33
2022-12-09T23:34:10.306Z,19.13
2022-12-09T23:36:40.464Z,22.03
2022-12-09T23:39:12.067Z,19.43
2022-12-09T23:41:41.800Z,19.37
2022-12-09T23:44:11.873Z,21.03
2022-12-09T23:46:40.832Z,20.57
2022-12-09T23:49:09.331Z,19.30
2022-12-09T23:51:40.510Z,18.77
2022-12-09T23:54:10.939Z,17.90
2022-12-09T23:56:44.161Z,19.63
2022-12-09T23:59:14.253Z,19.80
